createdAt,value
2017-04-20T00:00:05.257Z,20.57
2017-04-20T00:01:14.870Z,20.58
2017-04-20T00:02:25.106Z,20.57
2017-04-20T00:03:35.353Z,20.57
2017-04-20T00:04:44.965Z,20.55
2017-04-20T00:05:54.580Z,20.62
2017-04-20T00:07:04.828Z,20.57
2017-04-20T00:08:14.760Z,20.52
2017-04-20T00:09:25.019Z,20.55
2017-04-20T00:10:35.261Z,20.51
2017-04-20T00:11:44.872Z,20.62
2017-04-20T00:12:55.109Z,20.77
2017-04-20T00:14:05.043Z,20.76
2017-04-20T00:15:15.281Z,20.77
2017-04-20T00:16:25.226Z,20.84
2017-04-20T00:17:34.839Z,20.77
2017-04-20T00:18:44.762Z,20.76
2017-04-20T00:19:54.691Z,20.89
2017-04-20T00:21:04.931Z,20.92
2017-04-20T00:22:15.167Z,20.92
2017-04-20T00:23:25.403Z,20.88
2017-04-20T00:24:35.650Z,20.88
2017-04-20T00:25:45.954Z,20.89
2017-04-20T00:26:55.981Z,20.92
2017-04-20T00:28:05.960Z,20.87
2017-04-20T00:29:16.208Z,20.91
2017-04-20T00:30:26.137Z,20.94
2017-04-20T00:31:36.060Z,20.91
2017-04-20T00:32:46.000Z,20.94
2017-04-20T00:33:55.928Z,20.94
2017-04-20T00:35:06.189Z,20.95
2017-04-20T00:36:16.115Z,20.72
2017-04-20T00:37:26.058Z,20.77
2017-04-20T00:38:36.292Z,20.77
2017-04-20T00:39:45.900Z,20.72
2017-04-20T00:40:56.137Z,20.62
2017-04-20T00:42:06.058Z,20.59
2017-04-20T00:43:16.289Z,20.58
2017-04-20T00:44:26.521Z,20.54
2017-04-20T00:45:36.450Z,20.59
2017-04-20T00:46:46.374Z,20.55
2017-04-20T00:47:56.609Z,20.54
2017-04-20T00:49:06.848Z,20.57
2017-04-20T00:50:17.084Z,20.51
2017-04-20T00:51:26.724Z,20.51
2017-04-20T00:52:36.952Z,20.48
2017-04-20T00:53:46.872Z,20.51
2017-04-20T00:54:57.110Z,20.48
2017-04-20T00:56:07.035Z,20.51
2017-04-20T00:57:17.354Z,20.51
2017-04-20T00:58:27.593Z,20.51
2017-04-20T00:59:37.528Z,20.43
2017-04-20T01:00:47.444Z,20.48
2017-04-20T01:01:57.682Z,20.42
2017-04-20T01:03:07.602Z,20.41
2017-04-20T01:04:17.834Z,20.47
2017-04-20T01:05:28.070Z,20.48
2017-04-20T01:06:38.304Z,20.47
2017-04-20T01:07:48.533Z,20.51
2017-04-20T01:08:58.769Z,20.41
2017-04-20T01:10:08.684Z,20.43
2017-04-20T01:11:18.604Z,20.48
2017-04-20T01:12:28.834Z,20.41
2017-04-20T01:13:38.762Z,20.52
2017-04-20T01:14:48.375Z,20.52
2017-04-20T01:15:58.611Z,20.52
2017-04-20T01:17:08.845Z,20.42
2017-04-20T01:18:18.450Z,20.48
2017-04-20T01:19:28.700Z,20.39
2017-04-20T01:20:38.316Z,20.47
2017-04-20T01:21:48.240Z,20.36
2017-04-20T01:22:57.857Z,20.47
2017-04-20T01:24:07.780Z,20.38
2017-04-20T01:25:17.397Z,20.36
2017-04-20T01:26:27.626Z,20.43
2017-04-20T01:27:37.683Z,20.39
2017-04-20T01:28:48.108Z,20.38
2017-04-20T01:29:58.416Z,20.41
2017-04-20T01:31:08.339Z,20.41
2017-04-20T01:32:18.264Z,20.41
2017-04-20T01:33:28.497Z,20.47
2017-04-20T01:34:38.415Z,20.39
2017-04-20T01:35:48.644Z,20.48
2017-04-20T01:36:58.565Z,20.36
2017-04-20T01:38:08.803Z,20.38
2017-04-20T01:39:19.042Z,20.47
2017-04-20T01:40:29.279Z,20.38
2017-04-20T01:41:39.205Z,20.36
2017-04-20T01:42:49.439Z,20.39
2017-04-20T01:43:59.362Z,20.38
2017-04-20T01:45:09.599Z,20.33
2017-04-20T01:46:19.525Z,20.38
2017-04-20T01:47:29.757Z,20.41
2017-04-20T01:48:39.996Z,20.36
2017-04-20T01:49:49.929Z,20.41
2017-04-20T01:51:00.164Z,20.35
2017-04-20T01:52:10.092Z,20.33
2017-04-20T01:53:19.710Z,20.39
2017-04-20T01:54:29.668Z,20.36
2017-04-20T01:55:39.585Z,20.33
2017-04-20T01:56:49.218Z,20.33
2017-04-20T01:57:59.145Z,20.36
2017-04-20T01:59:09.112Z,20.35
2017-04-20T02:00:19.645Z,20.38
2017-04-20T02:01:29.877Z,20.32
2017-04-20T02:02:39.802Z,20.36
2017-04-20T02:03:49.730Z,20.39
2017-04-20T02:04:59.978Z,20.36
2017-04-20T02:06:10.221Z,20.38
2017-04-20T02:07:20.465Z,20.31
2017-04-20T02:08:30.389Z,20.33
2017-04-20T02:09:40.628Z,20.35
2017-04-20T02:10:50.861Z,20.35
2017-04-20T02:12:00.473Z,20.33
2017-04-20T02:13:10.393Z,20.35
2017-04-20T02:14:20.642Z,20.35
2017-04-20T02:15:30.254Z,20.35
2017-04-20T02:16:40.487Z,20.35
2017-04-20T02:17:50.719Z,20.36
2017-04-20T02:19:00.337Z,20.24
2017-04-20T02:20:10.568Z,20.29
2017-04-20T02:21:20.809Z,20.33
2017-04-20T02:22:31.063Z,20.31
2017-04-20T02:23:41.310Z,20.33
2017-04-20T02:24:51.550Z,20.29
2017-04-20T02:26:01.791Z,20.35
2017-04-20T02:27:12.027Z,20.32
2017-04-20T02:28:22.265Z,20.36
2017-04-20T02:29:32.514Z,20.35
2017-04-20T02:30:42.755Z,20.35
2017-04-20T02:31:52.755Z,20.33
2017-04-20T02:33:02.683Z,20.33
2017-04-20T02:34:13.191Z,20.32
2017-04-20T02:35:23.431Z,20.36
2017-04-20T02:36:33.382Z,20.36
2017-04-20T02:37:43.310Z,20.33
2017-04-20T02:38:53.246Z,20.38
2017-04-20T02:40:03.499Z,20.36
2017-04-20T02:41:13.436Z,20.33
2017-04-20T02:42:23.362Z,20.41
2017-04-20T02:43:33.281Z,20.42
2017-04-20T02:44:42.900Z,20.42
2017-04-20T02:45:52.829Z,20.51
2017-04-20T02:47:02.457Z,20.43
2017-04-20T02:48:12.392Z,20.48
2017-04-20T02:49:22.012Z,20.39
2017-04-20T02:50:32.250Z,20.42
2017-04-20T02:51:42.481Z,20.51
2017-04-20T02:52:52.724Z,20.47
2017-04-20T02:54:02.648Z,20.54
2017-04-20T02:55:12.885Z,20.5
2017-04-20T02:56:22.834Z,20.52
2017-04-20T02:57:32.766Z,20.51
2017-04-20T02:58:42.694Z,20.5
2017-04-20T02:59:52.613Z,20.41
2017-04-20T03:01:02.551Z,20.43
2017-04-20T03:02:12.476Z,20.35
2017-04-20T03:03:22.717Z,20.39
2017-04-20T03:04:32.970Z,20.31
2017-04-20T03:05:43.208Z,20.31
2017-04-20T03:06:53.446Z,20.32
2017-04-20T03:08:03.682Z,20.36
2017-04-20T03:09:13.705Z,20.39
2017-04-20T03:10:23.311Z,20.43
2017-04-20T03:11:33.235Z,20.42
2017-04-20T03:12:43.160Z,20.39
2017-04-20T03:13:52.787Z,20.43
2017-04-20T03:15:03.030Z,20.41
2017-04-20T03:16:12.639Z,20.48
2017-04-20T03:17:22.256Z,20.39
2017-04-20T03:18:32.514Z,20.39
2017-04-20T03:19:42.440Z,20.36
2017-04-20T03:20:52.677Z,20.39
2017-04-20T03:22:02.914Z,20.43
2017-04-20T03:23:13.158Z,20.5
2017-04-20T03:24:23.085Z,20.39
2017-04-20T03:25:33.322Z,20.36
2017-04-20T03:26:43.244Z,20.36
2017-04-20T03:27:53.187Z,20.38
2017-04-20T03:29:02.795Z,20.41
2017-04-20T03:30:12.721Z,20.33
2017-04-20T03:31:22.965Z,20.36
2017-04-20T03:32:33.206Z,20.39
2017-04-20T03:33:42.816Z,20.41
2017-04-20T03:34:53.058Z,20.39
2017-04-20T03:36:02.983Z,20.36
2017-04-20T03:37:12.593Z,20.35
2017-04-20T03:38:22.831Z,20.36
2017-04-20T03:39:32.772Z,20.38
2017-04-20T03:40:42.704Z,20.29
2017-04-20T03:41:52.624Z,20.31
2017-04-20T03:43:02.860Z,20.28
2017-04-20T03:44:13.100Z,20.32
2017-04-20T03:45:22.706Z,20.28
2017-04-20T03:46:32.808Z,20.31
2017-04-20T03:47:42.503Z,20.35
2017-04-20T03:48:52.812Z,20.31
2017-04-20T03:50:03.222Z,20.33
2017-04-20T03:51:12.525Z,20.31
2017-04-20T03:52:22.475Z,20.36
2017-04-20T03:53:32.087Z,20.35
2017-04-20T03:54:42.341Z,20.31
2017-04-20T03:55:52.576Z,20.33
2017-04-20T03:57:02.517Z,20.33
2017-04-20T03:58:11.818Z,20.38
2017-04-20T03:59:21.434Z,20.35
2017-04-20T04:00:31.070Z,20.28
2017-04-20T04:01:41.332Z,20.35
2017-04-20T04:02:51.570Z,20.31
2017-04-20T04:04:01.834Z,20.35
2017-04-20T04:05:11.762Z,20.31
2017-04-20T04:06:21.063Z,20.33
2017-04-20T04:07:31.299Z,20.41
2017-04-20T04:08:41.236Z,20.31
2017-04-20T04:09:51.170Z,20.32
2017-04-20T04:11:01.403Z,20.32
2017-04-20T04:12:11.639Z,20.33
2017-04-20T04:13:21.875Z,20.36
2017-04-20T04:14:31.802Z,20.38
2017-04-20T04:15:41.731Z,20.41
2017-04-20T04:16:51.658Z,20.39
2017-04-20T04:18:01.908Z,20.31
2017-04-20T04:19:12.148Z,20.35
2017-04-20T04:20:22.382Z,20.32
2017-04-20T04:21:32.615Z,20.24
2017-04-20T04:22:42.545Z,20.26
2017-04-20T04:23:52.650Z,20.29
2017-04-20T04:25:02.720Z,20.23
2017-04-20T04:26:12.669Z,20.24
2017-04-20T04:27:22.335Z,20.35
2017-04-20T04:28:32.473Z,20.33
2017-04-20T04:29:42.822Z,20.26
2017-04-20T04:30:53.059Z,20.35
2017-04-20T04:32:03.298Z,20.36
2017-04-20T04:33:13.535Z,20.31
2017-04-20T04:34:23.775Z,20.33
2017-04-20T04:35:34.009Z,20.38
2017-04-20T04:36:43.627Z,20.33
2017-04-20T04:37:53.238Z,20.47
2017-04-20T04:39:02.849Z,20.35
2017-04-20T04:40:13.085Z,20.29
2017-04-20T04:41:22.696Z,20.35
2017-04-20T04:42:32.326Z,20.28
2017-04-20T04:43:42.256Z,20.33
2017-04-20T04:44:52.181Z,20.28
2017-04-20T04:46:02.416Z,20.42
2017-04-20T04:47:12.655Z,20.52
2017-04-20T04:48:22.580Z,20.5
2017-04-20T04:49:32.196Z,20.42
2017-04-20T04:50:42.446Z,20.51
2017-04-20T04:51:52.682Z,20.62
2017-04-20T04:53:02.609Z,20.7
2017-04-20T04:54:12.845Z,20.73
2017-04-20T04:55:22.140Z,20.64
2017-04-20T04:56:32.061Z,20.76
2017-04-20T04:57:41.356Z,20.82
2017-04-20T04:58:50.969Z,20.92
2017-04-20T05:00:00.906Z,20.94
2017-04-20T05:01:10.826Z,20.98
2017-04-20T05:02:21.087Z,21.01
2017-04-20T05:03:31.014Z,20.89
2017-04-20T05:04:41.270Z,21.04
2017-04-20T05:05:51.510Z,20.99
2017-04-20T05:07:01.297Z,20.98
2017-04-20T05:08:11.352Z,21.04
2017-04-20T05:09:21.302Z,21.04
2017-04-20T05:10:31.541Z,21.07
2017-04-20T05:11:41.778Z,21.07
2017-04-20T05:12:51.707Z,21.09
2017-04-20T05:14:01.625Z,21.13
2017-04-20T05:15:11.557Z,21.12
2017-04-20T05:16:21.796Z,21.12
2017-04-20T05:17:32.036Z,21.13
2017-04-20T05:18:42.269Z,21.1
2017-04-20T05:19:52.501Z,21.1
2017-04-20T05:21:02.739Z,21.09
2017-04-20T05:22:12.977Z,21.1
2017-04-20T05:23:23.218Z,21.1
2017-04-20T05:24:33.145Z,21.1
2017-04-20T05:25:43.376Z,21.21
2017-04-20T05:26:53.297Z,21.16
2017-04-20T05:28:03.217Z,21.21
2017-04-20T05:29:13.455Z,21.27
2017-04-20T05:30:23.384Z,21.22
2017-04-20T05:31:33.647Z,21.24
2017-04-20T05:32:43.877Z,21.24
2017-04-20T05:33:53.811Z,21.22
2017-04-20T05:35:04.053Z,21.27
2017-04-20T05:36:13.979Z,21.25
2017-04-20T05:37:23.913Z,21.27
2017-04-20T05:38:33.841Z,21.24
2017-04-20T05:39:43.474Z,21.25
2017-04-20T05:40:53.401Z,21.25
2017-04-20T05:42:03.667Z,21.25
2017-04-20T05:43:13.905Z,21.21
2017-04-20T05:44:23.827Z,21.28
2017-04-20T05:45:34.233Z,21.28
2017-04-20T05:46:44.567Z,21.28
2017-04-20T05:47:54.520Z,21.31
2017-04-20T05:49:04.493Z,21.27
2017-04-20T05:50:14.119Z,21.22
2017-04-20T05:51:23.736Z,21.25
2017-04-20T05:52:33.346Z,21.28
2017-04-20T05:53:43.611Z,21.25
2017-04-20T05:54:53.848Z,21.24
2017-04-20T05:56:03.773Z,21.31
2017-04-20T05:57:13.386Z,21.32
2017-04-20T05:58:23.621Z,21.24
2017-04-20T05:59:33.861Z,21.32
2017-04-20T06:00:43.818Z,21.28
2017-04-20T06:01:53.742Z,21.37
2017-04-20T06:03:03.978Z,21.32
2017-04-20T06:04:14.215Z,21.32
2017-04-20T06:05:23.844Z,21.34
2017-04-20T06:06:34.082Z,21.35
2017-04-20T06:07:44.012Z,21.28
2017-04-20T06:08:54.246Z,21.38
2017-04-20T06:10:04.485Z,21.25
2017-04-20T06:11:14.725Z,21.28
2017-04-20T06:12:24.339Z,21.35
2017-04-20T06:13:34.576Z,21.28
2017-04-20T06:14:44.500Z,21.31
2017-04-20T06:15:54.425Z,21.35
2017-04-20T06:17:04.358Z,21.44
2017-04-20T06:18:14.282Z,21.37
2017-04-20T06:19:24.526Z,21.42
2017-04-20T06:20:34.762Z,21.34
2017-04-20T06:21:45.012Z,21.4
2017-04-20T06:22:55.251Z,21.38
2017-04-20T06:24:05.494Z,21.4
2017-04-20T06:25:15.430Z,21.4
2017-04-20T06:26:25.368Z,21.42
2017-04-20T06:27:35.681Z,21.38
2017-04-20T06:28:46.013Z,21.38
2017-04-20T06:29:56.030Z,21.35
2017-04-20T06:31:06.297Z,21.42
2017-04-20T06:32:15.903Z,21.4
2017-04-20T06:33:25.822Z,21.42
2017-04-20T06:34:35.762Z,21.46
2017-04-20T06:35:46.004Z,21.43
2017-04-20T06:36:56.249Z,21.37
2017-04-20T06:38:06.487Z,21.35
2017-04-20T06:39:16.097Z,21.32
2017-04-20T06:40:25.706Z,21.49
2017-04-20T06:41:35.627Z,21.34
2017-04-20T06:42:45.232Z,21.35
2017-04-20T06:43:55.497Z,21.46
2017-04-20T06:45:04.792Z,21.56
2017-04-20T06:46:14.717Z,21.49
2017-04-20T06:47:24.641Z,21.46
2017-04-20T06:48:34.577Z,21.32
2017-04-20T06:49:44.809Z,21.52
2017-04-20T06:50:54.418Z,21.46
2017-04-20T06:52:04.353Z,21.38
2017-04-20T06:53:14.591Z,21.43
2017-04-20T06:54:24.824Z,21.56
2017-04-20T06:55:35.073Z,21.49
2017-04-20T06:56:45.309Z,21.47
2017-04-20T06:57:54.917Z,21.46
2017-04-20T06:59:05.161Z,21.52
2017-04-20T07:00:15.088Z,21.5
2017-04-20T07:01:25.326Z,21.44
2017-04-20T07:02:35.574Z,21.58
2017-04-20T07:03:45.806Z,21.54
2017-04-20T07:04:56.035Z,21.49
2017-04-20T07:06:05.653Z,21.52
2017-04-20T07:07:15.266Z,21.59
2017-04-20T07:08:25.193Z,21.53
2017-04-20T07:09:35.433Z,21.56
2017-04-20T07:10:45.675Z,21.52
2017-04-20T07:11:55.942Z,21.58
2017-04-20T07:13:06.332Z,21.56
2017-04-20T07:14:16.166Z,21.54
2017-04-20T07:15:26.543Z,21.52
2017-04-20T07:16:36.380Z,21.61
2017-04-20T07:17:46.304Z,21.53
2017-04-20T07:18:56.547Z,21.56
2017-04-20T07:20:06.791Z,21.54
2017-04-20T07:21:16.715Z,21.62
2017-04-20T07:22:26.953Z,21.61
2017-04-20T07:23:37.190Z,21.56
2017-04-20T07:24:46.805Z,21.53
2017-04-20T07:25:57.072Z,21.65
2017-04-20T07:27:06.680Z,21.59
2017-04-20T07:28:16.601Z,21.64
2017-04-20T07:29:26.533Z,21.64
2017-04-20T07:30:36.776Z,21.69
2017-04-20T07:31:47.043Z,21.62
2017-04-20T07:32:57.284Z,21.62
2017-04-20T07:34:06.893Z,21.71
2017-04-20T07:35:17.127Z,21.65
2017-04-20T07:36:27.070Z,21.62
2017-04-20T07:37:36.998Z,21.67
2017-04-20T07:38:46.609Z,21.75
2017-04-20T07:39:56.529Z,21.67
2017-04-20T07:41:06.138Z,21.72
2017-04-20T07:42:15.437Z,21.74
2017-04-20T07:43:25.680Z,21.72
2017-04-20T07:44:34.995Z,21.77
2017-04-20T07:45:45.235Z,21.72
2017-04-20T07:46:55.474Z,21.71
2017-04-20T07:48:05.087Z,21.74
2017-04-20T07:49:14.700Z,21.74
2017-04-20T07:50:24.622Z,21.8
2017-04-20T07:51:34.247Z,21.79
2017-04-20T07:52:44.165Z,21.83
2017-04-20T07:53:53.772Z,21.84
2017-04-20T07:55:03.387Z,21.8
2017-04-20T07:56:13.194Z,21.8
2017-04-20T07:57:23.735Z,21.79
2017-04-20T07:58:33.662Z,21.8
2017-04-20T07:59:43.717Z,21.82
2017-04-20T08:00:53.652Z,21.83
2017-04-20T08:02:03.889Z,21.83
2017-04-20T08:03:13.192Z,21.82
2017-04-20T08:04:22.809Z,21.84
2017-04-20T08:05:32.748Z,21.84
2017-04-20T08:06:42.362Z,21.9
2017-04-20T08:07:52.289Z,21.83
2017-04-20T08:09:02.237Z,21.8
2017-04-20T08:10:12.167Z,21.82
2017-04-20T08:11:22.403Z,21.84
2017-04-20T08:12:32.329Z,21.88
2017-04-20T08:13:42.272Z,21.84
2017-04-20T08:14:52.203Z,21.88
2017-04-20T08:16:02.131Z,21.74
2017-04-20T08:17:12.396Z,21.79
2017-04-20T08:18:22.344Z,21.88
2017-04-20T08:19:32.271Z,21.84
2017-04-20T08:20:41.881Z,21.84
2017-04-20T08:21:51.831Z,21.9
2017-04-20T08:23:01.750Z,21.82
2017-04-20T08:24:11.671Z,21.83
2017-04-20T08:25:21.908Z,21.88
2017-04-20T08:26:32.150Z,21.92
2017-04-20T08:27:41.774Z,21.84
2017-04-20T08:28:51.698Z,21.92
2017-04-20T08:30:01.941Z,21.91
2017-04-20T08:31:11.557Z,21.96
2017-04-20T08:32:21.169Z,21.9
2017-04-20T08:33:31.089Z,21.88
2017-04-20T08:34:41.011Z,21.84
2017-04-20T08:35:50.947Z,21.91
2017-04-20T08:37:01.208Z,21.91
2017-04-20T08:38:10.822Z,21.88
2017-04-20T08:39:20.566Z,21.88
2017-04-20T08:40:31.090Z,21.86
2017-04-20T08:41:40.699Z,21.82
2017-04-20T08:42:50.527Z,21.94
2017-04-20T08:44:00.141Z,21.9
2017-04-20T08:45:10.075Z,21.86
2017-04-20T08:46:19.693Z,21.82
2017-04-20T08:47:29.615Z,21.91
2017-04-20T08:48:39.229Z,21.9
2017-04-20T08:49:48.841Z,21.96
2017-04-20T08:50:58.143Z,21.92
2017-04-20T08:52:08.068Z,21.99
2017-04-20T08:53:17.995Z,21.91
2017-04-20T08:54:28.236Z,21.88
2017-04-20T08:55:38.164Z,21.96
2017-04-20T08:56:48.091Z,21.98
2017-04-20T08:57:58.047Z,21.9
2017-04-20T08:59:08.290Z,21.9
2017-04-20T09:00:18.211Z,21.96
2017-04-20T09:01:28.455Z,21.99
2017-04-20T09:02:38.064Z,21.92
2017-04-20T09:03:47.673Z,21.91
2017-04-20T09:04:57.286Z,21.99
2017-04-20T09:06:07.213Z,21.98
2017-04-20T09:07:16.821Z,21.94
2017-04-20T09:08:26.744Z,21.98
2017-04-20T09:09:36.671Z,21.96
2017-04-20T09:10:46.287Z,21.92
2017-04-20T09:11:56.208Z,21.94
2017-04-20T09:13:05.826Z,21.98
2017-04-20T09:14:15.744Z,21.94
2017-04-20T09:15:25.992Z,21.91
2017-04-20T09:16:35.598Z,21.96
2017-04-20T09:17:45.526Z,21.86
2017-04-20T09:18:55.451Z,21.94
2017-04-20T09:20:05.699Z,21.83
2017-04-20T09:21:15.308Z,21.82
2017-04-20T09:22:24.932Z,21.9
2017-04-20T09:23:34.985Z,21.94
2017-04-20T09:24:45.228Z,21.94
2017-04-20T09:25:55.238Z,21.91
2017-04-20T09:27:05.250Z,21.84
2017-04-20T09:28:14.549Z,21.9
2017-04-20T09:29:24.608Z,21.94
2017-04-20T09:30:34.212Z,21.86
2017-04-20T09:31:44.506Z,21.94
2017-04-20T09:32:54.430Z,21.82
2017-04-20T09:34:04.043Z,21.94
2017-04-20T09:35:13.353Z,21.88
2017-04-20T09:36:23.587Z,21.92
2017-04-20T09:37:33.818Z,21.94
2017-04-20T09:38:44.057Z,21.96
2017-04-20T09:39:53.359Z,21.96
2017-04-20T09:41:02.981Z,21.98
2017-04-20T09:42:12.909Z,21.94
2017-04-20T09:43:22.522Z,21.98
2017-04-20T09:44:31.824Z,21.94
2017-04-20T09:45:41.440Z,21.98
2017-04-20T09:46:51.362Z,21.83
2017-04-20T09:48:01.289Z,21.98
2017-04-20T09:49:11.528Z,21.88
2017-04-20T09:50:21.140Z,21.91
2017-04-20T09:51:30.755Z,21.96
2017-04-20T09:52:40.693Z,21.98
2017-04-20T09:53:50.302Z,21.88
2017-04-20T09:55:00.554Z,21.91
2017-04-20T09:56:10.483Z,21.92
2017-04-20T09:57:20.410Z,21.86
2017-04-20T09:58:30.329Z,21.92
2017-04-20T09:59:39.936Z,21.88
2017-04-20T10:00:50.177Z,21.9
2017-04-20T10:02:00.415Z,21.92
2017-04-20T10:03:10.341Z,21.98
2017-04-20T10:04:19.946Z,21.9
2017-04-20T10:05:29.877Z,21.86
2017-04-20T10:06:39.802Z,21.94
2017-04-20T10:07:49.096Z,21.94
2017-04-20T10:08:58.704Z,21.9
2017-04-20T10:10:08.669Z,21.83
2017-04-20T10:11:18.594Z,21.94
2017-04-20T10:12:28.530Z,21.96
2017-04-20T10:13:38.962Z,21.94
2017-04-20T10:14:48.966Z,21.88
2017-04-20T10:15:58.577Z,21.92
2017-04-20T10:17:07.875Z,21.83
2017-04-20T10:18:17.513Z,21.86
2017-04-20T10:19:27.436Z,21.94
2017-04-20T10:20:37.366Z,21.96
2017-04-20T10:21:46.982Z,21.91
2017-04-20T10:22:56.598Z,21.96
2017-04-20T10:24:05.915Z,21.91
2017-04-20T10:25:15.850Z,21.92
2017-04-20T10:26:25.776Z,21.94
2017-04-20T10:27:35.389Z,21.92
2017-04-20T10:28:45.315Z,21.99
2017-04-20T10:29:54.302Z,21.92
2017-04-20T10:31:03.598Z,21.94
2017-04-20T10:32:12.913Z,21.99
2017-04-20T10:33:23.162Z,21.94
2017-04-20T10:34:33.090Z,21.94
2017-04-20T10:35:42.389Z,21.94
2017-04-20T10:36:51.993Z,21.96
2017-04-20T10:38:01.919Z,21.98
2017-04-20T10:39:11.850Z,21.94
2017-04-20T10:40:21.463Z,21.98
2017-04-20T10:41:30.764Z,21.92
2017-04-20T10:42:40.687Z,21.94
2017-04-20T10:43:50.629Z,22
2017-04-20T10:45:00.548Z,21.92
2017-04-20T10:46:10.793Z,21.94
2017-04-20T10:47:21.036Z,21.94
2017-04-20T10:48:30.657Z,21.96
2017-04-20T10:49:40.266Z,21.96
2017-04-20T10:50:50.195Z,21.96
2017-04-20T10:52:00.117Z,21.91
2017-04-20T10:53:09.725Z,21.92
2017-04-20T10:54:19.961Z,21.99
2017-04-20T10:55:29.261Z,21.99
2017-04-20T10:56:38.872Z,21.96
2017-04-20T10:57:48.487Z,21.9
2017-04-20T10:58:58.106Z,21.98
2017-04-20T11:00:08.338Z,21.98
2017-04-20T11:01:18.267Z,21.91
2017-04-20T11:02:27.571Z,21.91
2017-04-20T11:03:37.197Z,21.96
2017-04-20T11:04:47.151Z,21.94
2017-04-20T11:05:56.759Z,21.96
2017-04-20T11:07:06.386Z,21.98
2017-04-20T11:08:15.371Z,21.9
2017-04-20T11:09:24.667Z,21.94
2017-04-20T11:10:33.652Z,21.98
2017-04-20T11:11:42.958Z,21.96
2017-04-20T11:12:52.576Z,21.98
2017-04-20T11:14:02.190Z,21.94
2017-04-20T11:15:10.863Z,21.92
2017-04-20T11:16:20.793Z,21.96
2017-04-20T11:17:30.402Z,21.99
2017-04-20T11:18:40.334Z,21.99
2017-04-20T11:19:50.575Z,21.99
2017-04-20T11:21:00.507Z,21.96
2017-04-20T11:22:10.757Z,21.92
2017-04-20T11:23:20.682Z,21.92
2017-04-20T11:24:30.303Z,21.99
2017-04-20T11:25:39.913Z,22
2017-04-20T11:26:49.851Z,21.99
2017-04-20T11:27:59.156Z,21.88
2017-04-20T11:29:09.077Z,21.96
2017-04-20T11:30:18.683Z,21.94
2017-04-20T11:31:28.925Z,21.92
2017-04-20T11:32:38.851Z,22.02
2017-04-20T11:33:48.773Z,21.96
2017-04-20T11:34:58.694Z,22
2017-04-20T11:36:08.623Z,21.98
2017-04-20T11:37:17.604Z,21.92
2017-04-20T11:38:27.530Z,21.92
2017-04-20T11:39:37.455Z,21.92
2017-04-20T11:40:47.083Z,21.92
2017-04-20T11:41:57.008Z,21.94
2017-04-20T11:43:06.619Z,21.94
2017-04-20T11:44:16.543Z,21.94
2017-04-20T11:45:26.777Z,21.92
2017-04-20T11:46:36.394Z,21.9
2017-04-20T11:47:46.006Z,21.98
2017-04-20T11:48:55.810Z,21.96
2017-04-20T11:50:05.103Z,21.88
2017-04-20T11:51:15.778Z,21.91
2017-04-20T11:52:26.018Z,21.91
2017-04-20T11:53:35.630Z,21.98
2017-04-20T11:54:45.160Z,21.91
2017-04-20T11:55:55.137Z,21.9
2017-04-20T11:57:04.490Z,21.94
2017-04-20T11:58:14.413Z,21.91
2017-04-20T11:59:24.076Z,21.9
2017-04-20T12:00:33.685Z,21.94
2017-04-20T12:01:42.982Z,21.94
2017-04-20T12:02:52.920Z,21.98
2017-04-20T12:04:02.849Z,21.94
2017-04-20T12:05:12.457Z,21.9
2017-04-20T12:06:21.752Z,21.9
2017-04-20T12:07:31.680Z,21.98
2017-04-20T12:08:41.604Z,21.96
2017-04-20T12:09:51.532Z,21.86
2017-04-20T12:11:01.760Z,21.92
2017-04-20T12:12:11.685Z,21.94
2017-04-20T12:13:21.293Z,21.9
2017-04-20T12:14:30.907Z,21.92
2017-04-20T12:15:40.846Z,21.94
2017-04-20T12:16:50.160Z,21.96
2017-04-20T12:18:00.398Z,21.99
2017-04-20T12:19:10.013Z,21.96
2017-04-20T12:20:19.934Z,21.94
2017-04-20T12:21:29.238Z,21.96
2017-04-20T12:22:39.473Z,21.94
2017-04-20T12:23:49.430Z,21.94
2017-04-20T12:24:59.052Z,21.94
2017-04-20T12:26:08.667Z,21.98
2017-04-20T12:27:18.278Z,21.96
2017-04-20T12:28:28.519Z,22.06
2017-04-20T12:29:38.767Z,22.02
2017-04-20T12:30:48.701Z,22
2017-04-20T12:31:58.305Z,22.07
2017-04-20T12:33:08.228Z,22.03
2017-04-20T12:34:18.147Z,22.06
2017-04-20T12:35:27.752Z,22.06
2017-04-20T12:36:37.677Z,22
2017-04-20T12:37:47.925Z,22.02
2017-04-20T12:38:58.189Z,22.02
2017-04-20T12:40:08.109Z,22.06
2017-04-20T12:41:17.714Z,21.99
2017-04-20T12:42:27.881Z,22.03
2017-04-20T12:43:37.925Z,22
2017-04-20T12:44:48.643Z,22.02
2017-04-20T12:45:58.880Z,22.06
2017-04-20T12:47:08.510Z,21.99
2017-04-20T12:48:18.744Z,22
2017-04-20T12:49:28.672Z,22.05
2017-04-20T12:50:38.916Z,22.02
2017-04-20T12:51:49.157Z,22.03
2017-04-20T12:52:59.407Z,22.02
2017-04-20T12:54:09.335Z,22.09
2017-04-20T12:55:19.259Z,22.02
2017-04-20T12:56:29.189Z,22.14
2017-04-20T12:57:39.516Z,22.17
2017-04-20T12:58:49.145Z,22.1
2017-04-20T12:59:59.068Z,22.15
2017-04-20T13:01:09.311Z,22.07
2017-04-20T13:02:18.937Z,22.12
2017-04-20T13:03:28.866Z,22.05
2017-04-20T13:04:38.793Z,22.1
2017-04-20T13:05:48.404Z,22.06
2017-04-20T13:06:58.342Z,22.14
2017-04-20T13:08:08.584Z,22.09
2017-04-20T13:09:18.819Z,22.06
2017-04-20T13:10:29.056Z,22.05
2017-04-20T13:11:38.975Z,22.07
2017-04-20T13:12:48.900Z,22.12
2017-04-20T13:13:59.135Z,22.05
2017-04-20T13:15:08.754Z,22.06
2017-04-20T13:16:18.362Z,22.12
2017-04-20T13:17:28.616Z,22.05
2017-04-20T13:18:38.851Z,22.1
2017-04-20T13:19:48.798Z,22.14
2017-04-20T13:20:59.031Z,22.14
2017-04-20T13:22:08.647Z,22.14
2017-04-20T13:23:18.901Z,22.14
2017-04-20T13:24:28.823Z,22.09
2017-04-20T13:25:38.747Z,22.07
2017-04-20T13:26:48.670Z,22.05
2017-04-20T13:27:57.451Z,22.07
2017-04-20T13:29:07.843Z,22.06
2017-04-20T13:30:17.343Z,22.12
2017-04-20T13:31:27.436Z,22.05
2017-04-20T13:32:37.666Z,22.07
2017-04-20T13:33:47.590Z,22.05
2017-04-20T13:34:57.832Z,22
2017-04-20T13:36:07.445Z,22.1
2017-04-20T13:37:17.371Z,22.07
2017-04-20T13:38:27.610Z,22.09
2017-04-20T13:39:37.239Z,22.02
2017-04-20T13:40:46.851Z,22.06
2017-04-20T13:41:56.460Z,22.05
2017-04-20T13:43:06.394Z,22.07
2017-04-20T13:44:16.316Z,22.1
2017-04-20T13:45:26.557Z,22.05
2017-04-20T13:46:36.793Z,22.1
2017-04-20T13:47:46.726Z,22.14
2017-04-20T13:48:56.657Z,22.14
2017-04-20T13:50:06.901Z,22.17
2017-04-20T13:51:16.846Z,22.17
2017-04-20T13:52:26.453Z,22.14
2017-04-20T13:53:36.062Z,22.18
2017-04-20T13:54:45.982Z,22.21
2017-04-20T13:55:56.221Z,22.28
2017-04-20T13:57:06.456Z,22.25
2017-04-20T13:58:16.075Z,22.25
2017-04-20T13:59:25.997Z,22.25
2017-04-20T14:00:35.918Z,22.21
2017-04-20T14:01:46.155Z,22.2
2017-04-20T14:02:55.769Z,22.17
2017-04-20T14:04:05.719Z,22.15
2017-04-20T14:05:15.016Z,22.14
2017-04-20T14:06:24.935Z,22.17
2017-04-20T14:07:35.183Z,22.17
2017-04-20T14:08:45.419Z,22.18
2017-04-20T14:09:55.341Z,22.17
2017-04-20T14:11:05.575Z,22.09
2017-04-20T14:12:15.507Z,22.17
2017-04-20T14:13:25.702Z,22.14
2017-04-20T14:14:35.726Z,22.17
2017-04-20T14:15:45.844Z,22.14
2017-04-20T14:16:55.943Z,22.09
2017-04-20T14:18:06.334Z,22.03
2017-04-20T14:19:16.446Z,22.1
2017-04-20T14:20:26.135Z,22.15
2017-04-20T14:21:35.749Z,22.1
2017-04-20T14:22:45.371Z,22.18
2017-04-20T14:23:55.611Z,22.1
2017-04-20T14:25:05.533Z,22.17
2017-04-20T14:26:15.771Z,22.1
2017-04-20T14:27:25.699Z,22.15
2017-04-20T14:28:35.625Z,22.1
2017-04-20T14:29:45.874Z,22.12
2017-04-20T14:30:56.112Z,22.07
2017-04-20T14:32:06.041Z,22.12
2017-04-20T14:33:15.965Z,22.15
2017-04-20T14:34:25.883Z,22.1
2017-04-20T14:35:36.127Z,22.05
2017-04-20T14:36:46.051Z,22.05
2017-04-20T14:37:55.978Z,22.07
2017-04-20T14:39:05.943Z,22.06
2017-04-20T14:40:15.561Z,22.09
2017-04-20T14:41:25.801Z,22.05
2017-04-20T14:42:36.046Z,22.06
2017-04-20T14:43:45.970Z,22.12
2017-04-20T14:44:55.895Z,22.1
2017-04-20T14:46:06.135Z,22.07
2017-04-20T14:47:16.375Z,22.12
2017-04-20T14:48:26.300Z,22.09
2017-04-20T14:49:36.540Z,22.06
2017-04-20T14:50:46.462Z,22.1
2017-04-20T14:51:56.391Z,22.12
2017-04-20T14:53:06.626Z,22.1
2017-04-20T14:54:16.543Z,22.06
2017-04-20T14:55:26.783Z,22.12
2017-04-20T14:56:37.025Z,22.12
2017-04-20T14:57:47.267Z,22.12
2017-04-20T14:58:57.504Z,22.07
2017-04-20T15:00:07.435Z,22.03
2017-04-20T15:01:17.686Z,22.06
2017-04-20T15:02:27.925Z,22.05
2017-04-20T15:03:38.148Z,22.06